Time;durP1;ratioP1;P1;durP2;ratioP2;P2;SDS_P1;SDS_P2;PMS_P1;PMS_P2;Temp;Humidity;BMP_temperature;BMP_pressure;BME280_temperature;BME280_humidity;BME280_pressure;Samples;Min_cycle;Max_cycle;Signal;HPM_P1;HPM_P2
2021/12/30 00:01:00;;;;;;;503.75;59.67;;;2.20;99.90;;;0.52;100.00;99973.84;6108127;23;20010;-78
2021/12/30 00:03:29;;;;;;;476.23;60.33;;;2.20;99.90;;;0.57;100.00;99983.25;6064042;23;20028;-78
2021/12/30 00:05:55;;;;;;;446.10;60.35;;;1.80;99.90;;;0.54;100.00;99988.50;6123874;22;20005;-79
2021/12/30 00:08:23;;;;;;;422.48;59.42;;;2.30;99.90;;;0.55;100.00;99987.59;6102122;23;20051;-79
2021/12/30 00:10:51;;;;;;;458.10;58.45;;;2.30;99.90;;;0.58;100.00;99966.84;6101621;23;20047;-78
2021/12/30 00:13:22;;;;;;;420.25;58.50;;;2.30;99.90;;;0.57;100.00;99977.22;6067108;23;20005;-78
2021/12/30 00:15:48;;;;;;;426.52;60.00;;;2.30;99.90;;;0.61;100.00;99984.06;6031947;23;20006;-78
2021/12/30 00:18:16;;;;;;;439.45;59.65;;;2.30;99.90;;;0.64;100.00;99989.19;6057897;23;20436;-78
2021/12/30 00:20:42;;;;;;;420.70;59.67;;;2.30;99.90;;;0.65;100.00;99979.66;6098657;23;20088;-79
2021/12/30 00:23:10;;;;;;;382.35;55.95;;;2.30;99.90;;;0.60;100.00;99980.63;6107933;23;20015;-78
2021/12/30 00:25:41;;;;;;;412.83;59.60;;;2.30;99.90;;;0.58;100.00;99969.44;6062150;23;19993;-79
2021/12/30 00:28:17;;;;;;;408.88;58.92;;;2.30;99.90;;;0.58;100.00;99968.56;6059964;23;20013;-78
2021/12/30 00:30:44;;;;;;;;;;;2.30;99.90;;;0.53;100.00;99979.00;6061174;23;20001;-78
2021/12/30 00:33:11;;;;;;;389.45;54.03;;;2.30;99.90;;;0.52;100.00;99974.72;6138408;23;19951;-78
2021/12/30 00:35:38;;;;;;;410.10;57.28;;;2.30;99.90;;;0.53;100.00;99963.47;6054843;23;19999;-78
2021/12/30 00:38:08;;;;;;;421.63;59.10;;;2.30;99.90;;;0.45;100.00;99951.53;6038886;23;20122;-78
2021/12/30 00:40:37;;;;;;;345.50;54.25;;;2.20;99.90;;;0.36;100.00;99945.63;6089372;23;20024;-78
2021/12/30 00:43:05;;;;;;;379.98;54.75;;;2.20;99.90;;;0.44;100.00;99957.59;6039020;23;20012;-79
2021/12/30 00:45:41;;;;;;;384.27;56.75;;;2.20;99.90;;;0.42;100.00;99949.84;6090670;23;20083;-78
2021/12/30 00:48:08;;;;;;;381.80;56.67;;;2.20;99.90;;;0.38;100.00;99948.19;6049631;23;22466;-79
2021/12/30 00:50:40;;;;;;;383.30;58.75;;;2.20;99.90;;;0.47;100.00;99962.72;6077110;23;19993;-79
2021/12/30 00:53:08;;;;;;;372.80;55.40;;;2.20;99.90;;;0.51;100.00;99965.22;6061574;23;20027;-79
2021/12/30 00:55:34;;;;;;;382.42;55.25;;;2.20;99.90;;;0.48;100.00;99967.03;6061128;23;20272;-79
2021/12/30 00:58:01;;;;;;;361.50;56.50;;;2.20;99.90;;;0.46;100.00;99964.47;6079747;23;20011;-79
2021/12/30 01:00:34;;;;;;;365.20;57.28;;;2.20;99.90;;;0.43;100.00;99968.81;6081551;23;20016;-79
2021/12/30 01:03:01;;;;;;;341.55;56.80;;;2.20;99.90;;;0.45;100.00;99974.84;6074227;23;20082;-79
2021/12/30 01:05:27;;;;;;;376.20;55.95;;;2.20;99.90;;;0.44;100.00;99967.97;6051091;23;20092;-79
2021/12/30 01:07:52;;;;;;;353.48;58.22;;;2.20;99.90;;;0.48;100.00;99973.06;6038862;23;20005;-79
2021/12/30 01:10:23;;;;;;;342.75;56.05;;;2.20;99.90;;;0.52;100.00;99968.66;6090175;23;20009;-79
2021/12/30 01:12:54;;;;;;;331.73;56.78;;;2.30;99.90;;;0.58;100.00;99964.25;6037688;23;20022;-79
2021/12/30 01:15:33;;;;;;;329.92;56.22;;;2.30;99.90;;;0.63;100.00;99968.47;6062947;23;20013;-79
2021/12/30 01:18:23;;;;;;;359.77;59.30;;;2.30;99.90;;;0.61;100.00;99974.53;6073070;23;20316;-79
2021/12/30 01:20:51;;;;;;;332.60;56.05;;;2.30;99.90;;;0.67;100.00;99977.91;6077743;23;20033;-79
2021/12/30 01:23:18;;;;;;;332.00;56.08;;;2.30;99.90;;;0.67;100.00;99975.31;6045442;23;20010;-79
2021/12/30 01:25:44;;;;;;;298.30;54.00;;;2.30;99.90;;;0.61;100.00;99969.38;6050817;23;20001;-78
2021/12/30 01:28:10;;;;;;;330.02;54.83;;;2.40;99.90;;;0.59;100.00;99945.22;6046770;23;20021;-79
2021/12/30 01:30:41;;;;;;;301.38;56.30;;;2.30;99.90;;;0.65;100.00;99951.16;6041877;23;20064;-78
2021/12/30 01:33:07;;;;;;;306.45;56.25;;;2.30;99.90;;;0.62;100.00;99957.25;6016374;23;20023;-80
2021/12/30 01:35:34;;;;;;;320.73;54.58;;;2.40;99.90;;;0.67;100.00;99962.34;6096121;23;20016;-79
2021/12/30 01:38:01;;;;;;;308.63;53.33;;;2.40;99.90;;;0.65;100.00;99928.72;6020880;23;20448;-78
2021/12/30 01:40:33;;;;;;;301.80;53.83;;;2.30;99.90;;;0.68;100.00;99935.56;6015923;23;20021;-79
2021/12/30 01:42:59;;;;;;;301.42;53.50;;;2.40;99.90;;;0.65;100.00;99930.44;6032843;23;20022;-79
2021/12/30 01:45:25;;;;;;;317.13;55.28;;;2.40;99.90;;;0.66;100.00;99953.72;6029560;23;20029;-78
2021/12/30 01:47:53;;;;;;;287.35;52.80;;;2.40;99.90;;;0.72;100.00;99950.19;6007419;23;20573;-79
2021/12/30 01:50:25;;;;;;;294.75;54.55;;;2.40;99.90;;;0.63;100.00;99951.22;6063202;23;20021;-79
2021/12/30 01:52:52;;;;;;;253.85;47.83;;;2.40;99.90;;;0.65;100.00;99959.81;6049051;23;20052;-79
2021/12/30 01:55:21;;;;;;;258.75;49.55;;;2.40;99.90;;;0.74;100.00;99976.94;6029513;23;20527;-79
2021/12/30 01:57:51;;;;;;;278.20;49.97;;;2.50;99.90;;;0.70;100.00;99963.16;6041082;23;20052;-78
2021/12/30 02:00:24;;;;;;;277.13;50.38;;;2.40;99.90;;;0.69;100.00;99973.53;6003093;23;20015;-79
2021/12/30 02:02:51;;;;;;;261.98;50.25;;;2.40;99.90;;;0.68;100.00;99975.28;6037539;23;20018;-78
2021/12/30 02:05:22;;;;;;;250.13;47.33;;;2.40;99.90;;;0.69;100.00;99965.78;6062082;23;20076;-79
2021/12/30 02:07:48;;;;;;;288.05;49.60;;;2.40;99.90;;;0.69;100.00;99945.91;6031626;23;20013;-79
2021/12/30 02:10:15;;;;;;;266.38;49.35;;;2.40;99.90;;;0.75;100.00;99942.34;6016607;23;20013;-79
2021/12/30 02:12:43;;;;;;;283.45;49.50;;;2.40;99.90;;;0.74;100.00;99948.41;5998360;23;20022;-79
2021/12/30 02:15:16;;;;;;;266.85;47.90;;;2.50;99.90;;;0.73;100.00;99933.75;6090208;23;20013;-79
2021/12/30 02:17:43;;;;;;;240.15;43.90;;;2.50;99.90;;;0.71;100.00;99922.56;6015156;23;20033;-79
2021/12/30 02:20:49;;;;;;;270.38;46.28;;;2.40;99.90;;;0.71;100.00;99930.31;6100330;23;20029;-79
2021/12/30 02:23:22;;;;;;;231.93;43.45;;;2.40;99.90;;;0.65;100.00;99928.72;6059356;23;20148;-79
2021/12/30 02:26:00;;;;;;;226.93;45.50;;;2.40;99.90;;;0.63;100.00;99942.56;6024470;23;20005;-78
2021/12/30 02:28:35;;;;;;;238.48;44.55;;;2.40;99.90;;;0.69;100.00;99939.84;6040857;23;20022;-78
2021/12/30 02:31:06;;;;;;;224.77;42.47;;;2.40;99.90;;;0.72;100.00;99943.25;6058366;23;20012;-79
2021/12/30 02:33:32;;;;;;;230.90;42.95;;;2.40;99.90;;;0.73;100.00;99937.19;6077126;23;20013;-79
2021/12/30 02:36:01;;;;;;;215.90;40.80;;;2.50;99.90;;;0.80;100.00;99943.13;5994132;23;20345;-78
2021/12/30 02:38:27;;;;;;;193.45;39.40;;;2.50;99.90;;;0.82;100.00;99946.50;6070497;23;20235;-79
2021/12/30 02:40:57;;;;;;;191.73;40.10;;;2.50;99.90;;;0.84;100.00;99936.97;6066631;23;20077;-78
2021/12/30 02:43:30;;;;;;;193.98;39.50;;;2.50;99.90;;;0.85;100.00;99938.69;5961822;23;20009;-78
2021/12/30 02:45:59;;;;;;;190.65;39.70;;;2.50;99.90;;;0.87;100.00;99928.31;5983690;23;20126;-79
2021/12/30 02:48:32;;;;;;;186.13;36.90;;;2.60;99.90;;;0.87;100.00;99918.78;6042023;23;20487;-79
2021/12/30 02:51:03;;;;;;;172.57;35.33;;;2.50;99.90;;;0.86;100.00;99939.53;6071343;23;20029;-79
2021/12/30 02:53:29;;;;;;;186.85;36.58;;;2.60;99.90;;;0.95;100.00;99941.94;6019986;23;20057;-79
2021/12/30 02:56:03;;;;;;;191.30;38.15;;;2.60;99.90;;;0.96;100.00;99936.75;6047413;23;20018;-79
2021/12/30 02:58:29;;;;;;;172.70;37.10;;;2.60;99.90;;;1.00;100.00;99938.41;6054579;23;20009;-79
2021/12/30 03:01:07;;;;;;;175.00;36.97;;;2.70;99.90;;;1.01;100.00;99921.94;6046804;23;20001;-79
2021/12/30 03:03:33;;;;;;;164.65;35.28;;;2.70;99.90;;;1.02;100.00;99928.84;6043326;23;20033;-79
2021/12/30 03:06:03;;;;;;;184.77;35.30;;;2.70;99.90;;;1.06;100.00;99933.97;6035466;23;20001;-79
2021/12/30 03:08:32;;;;;;;175.23;35.53;;;2.70;99.90;;;1.05;100.00;99937.44;6064934;23;20379;-79
2021/12/30 03:10:59;;;;;;;160.93;34.15;;;2.70;99.90;;;1.08;100.00;99946.03;6066450;23;19998;-80
2021/12/30 03:13:31;;;;;;;161.70;34.72;;;2.70;99.90;;;1.10;100.00;99952.03;6007752;23;20002;-79
2021/12/30 03:16:11;;;;;;;150.50;31.83;;;2.70;99.90;;;1.12;100.00;99949.41;6049614;23;20015;-80
2021/12/30 03:18:44;;;;;;;141.32;30.33;;;2.80;99.90;;;1.15;100.00;99952.78;6030221;23;19999;-80
2021/12/30 03:21:13;;;;;;;149.95;30.98;;;2.80;99.90;;;1.16;100.00;99954.47;6040658;23;20001;-80
2021/12/30 03:23:39;;;;;;;144.07;30.90;;;2.80;99.90;;;1.17;100.00;99937.22;5985896;23;20076;-79
2021/12/30 03:26:09;;;;;;;137.88;31.00;;;2.80;99.90;;;1.13;100.00;99925.19;6004157;23;20005;-81
2021/12/30 03:28:36;;;;;;;136.02;30.40;;;2.80;99.90;;;1.11;100.00;99932.16;6031601;23;20040;-79
2021/12/30 03:31:03;;;;;;;139.55;30.63;;;2.80;99.90;;;1.11;100.00;99935.59;6005305;23;20014;-79
2021/12/30 03:33:31;;;;;;;129.25;28.42;;;2.80;99.90;;;1.18;100.00;99942.34;6051293;23;20001;-79
2021/12/30 03:36:02;;;;;;;129.80;29.30;;;2.80;99.90;;;1.24;100.00;99954.34;6021553;23;20009;-78
2021/12/30 03:38:35;;;;;;;126.95;28.25;;;2.90;99.90;;;1.29;100.00;99962.88;6055510;23;20032;-79
2021/12/30 03:41:07;;;;;;;126.93;28.95;;;2.90;99.90;;;1.28;100.00;99962.91;6089699;23;20002;-79
2021/12/30 03:43:35;;;;;;;130.32;28.40;;;2.90;99.90;;;1.32;100.00;99965.41;6032593;23;20032;-80
2021/12/30 03:46:02;;;;;;;131.40;28.63;;;2.90;99.90;;;1.35;100.00;99978.31;6055327;23;20008;-79
2021/12/30 03:48:33;;;;;;;135.73;29.08;;;3.00;99.90;;;1.35;100.00;99967.94;6029297;23;20006;-79
2021/12/30 03:51:08;;;;;;;129.77;27.20;;;3.00;99.90;;;1.39;100.00;99972.16;6021633;23;20028;-80
2021/12/30 03:53:40;;;;;;;127.72;28.05;;;3.00;99.90;;;1.40;100.00;99960.94;6020644;23;20005;-79
2021/12/30 03:56:11;;;;;;;116.20;26.92;;;3.10;99.90;;;1.39;100.00;99948.81;5979744;23;20033;-80
2021/12/30 03:58:42;;;;;;;128.65;26.85;;;3.10;99.90;;;1.44;100.00;99964.28;6045079;23;20435;-80
2021/12/30 04:01:11;;;;;;;128.93;26.08;;;3.10;99.90;;;1.47;100.00;99960.78;6000464;23;20154;-80
2021/12/30 04:03:38;;;;;;;123.55;26.95;;;3.10;99.90;;;1.50;100.00;99960.72;6010928;23;20011;-79
2021/12/30 04:06:07;;;;;;;133.38;28.08;;;3.10;99.90;;;1.54;100.00;99964.97;6060362;23;20005;-80
2021/12/30 04:08:34;;;;;;;139.05;28.33;;;3.10;99.90;;;1.55;100.00;99964.06;6013297;23;24383;-80
2021/12/30 04:11:01;;;;;;;147.18;28.85;;;3.20;99.90;;;1.57;100.00;99947.56;6032784;23;20516;-80
2021/12/30 04:13:28;;;;;;;132.23;26.50;;;3.20;99.90;;;1.61;100.00;99959.59;6036232;23;20001;-80
2021/12/30 04:15:54;;;;;;;150.18;27.80;;;3.20;99.90;;;1.67;100.00;99971.59;6050608;23;20071;-79
2021/12/30 04:18:25;;;;;;;137.70;27.52;;;3.30;99.90;;;1.70;100.00;99974.09;6008491;23;20013;-80
2021/12/30 04:20:51;;;;;;;119.85;25.67;;;3.20;99.90;;;1.70;100.00;99968.91;6070434;23;20083;-80
2021/12/30 04:23:17;;;;;;;126.97;25.35;;;3.30;99.90;;;1.73;100.00;99955.88;6062192;23;20412;-79
2021/12/30 04:25:43;;;;;;;145.73;25.92;;;3.30;99.90;;;1.77;100.00;99960.13;5988815;23;20001;-80
2021/12/30 04:28:09;;;;;;;131.07;24.55;;;3.30;99.90;;;1.78;100.00;99967.00;6035412;23;20013;-79
2021/12/30 04:30:36;;;;;;;159.80;26.17;;;3.30;99.90;;;1.82;100.00;99972.97;6026317;23;21122;-80
2021/12/30 04:33:05;;;;;;;150.70;26.90;;;3.40;99.90;;;1.85;100.00;99959.91;6024138;23;20076;-79
2021/12/30 04:35:32;;;;;;;193.10;28.42;;;3.40;99.90;;;1.84;100.00;99966.00;6026567;23;20080;-80
2021/12/30 04:37:58;;;;;;;150.65;25.85;;;3.40;99.90;;;1.90;100.00;99965.00;6040034;23;20013;-80
2021/12/30 04:40:24;;;;;;;185.93;26.65;;;3.40;99.90;;;1.94;100.00;99974.44;6042053;23;20396;-79
2021/12/30 04:42:50;;;;;;;228.23;28.90;;;3.40;99.90;;;1.94;100.00;99969.25;6078611;23;20025;-79
2021/12/30 04:45:25;;;;;;;251.15;28.95;;;3.50;99.90;;;1.96;100.00;99977.84;6005286;23;20095;-79
2021/12/30 04:47:51;;;;;;;210.00;28.13;;;3.50;99.90;;;1.98;100.00;99965.69;6064261;23;20013;-79
2021/12/30 04:50:17;;;;;;;262.63;29.27;;;3.50;99.90;;;2.00;100.00;99976.88;6030352;23;20080;-80
2021/12/30 04:52:42;;;;;;;285.13;30.17;;;3.50;99.90;;;2.03;100.00;99974.22;6048015;23;20041;-79
2021/12/30 04:55:14;;;;;;;235.32;27.58;;;3.60;99.90;;;2.05;100.00;99955.13;6042364;23;20316;-79
2021/12/30 04:57:40;;;;;;;260.88;29.67;;;3.60;99.90;;;2.09;100.00;99966.28;6056239;23;20009;-79
2021/12/30 05:00:11;;;;;;;218.65;27.17;;;3.60;99.90;;;2.09;100.00;99948.09;6042319;23;20079;-80
2021/12/30 05:03:21;;;;;;;238.32;27.48;;;3.90;99.90;;;2.11;100.00;99969.69;6024954;23;20089;-79
2021/12/30 05:05:27;;;;;;;180.15;24.17;;;3.70;99.90;;;2.14;100.00;99994.72;6005679;23;20399;-79
2021/12/30 05:07:53;;;;;;;206.80;25.95;;;3.70;99.90;;;2.19;100.00;99998.94;6021275;23;20009;-79
2021/12/30 05:10:18;;;;;;;199.82;26.25;;;3.70;99.90;;;2.19;100.00;100009.31;6023093;23;20125;-80
2021/12/30 05:12:52;;;;;;;243.35;28.00;;;3.70;99.90;;;2.20;100.00;100005.84;6129678;23;20044;-80
2021/12/30 05:15:18;;;;;;;276.60;27.85;;;3.70;99.90;;;2.21;100.00;100011.91;6008241;23;20628;-79
2021/12/30 05:17:44;;;;;;;462.08;31.95;;;3.70;99.90;;;2.20;100.00;99979.00;6010439;23;20084;-80
2021/12/30 05:20:12;;;;;;;367.15;29.33;;;3.80;99.90;;;2.22;100.00;99991.06;6003337;23;20042;-80
2021/12/30 05:22:44;;;;;;;388.05;28.63;;;3.70;99.90;;;2.22;100.00;99991.06;6056599;23;20371;-80
2021/12/30 05:25:13;;;;;;;334.50;29.33;;;3.80;99.90;;;2.23;100.00;99953.81;6015609;23;20075;-79
2021/12/30 05:27:39;;;;;;;387.45;29.38;;;3.80;99.90;;;2.25;100.00;100009.19;6023196;23;20013;-79
2021/12/30 05:30:12;;;;;;;377.67;26.48;;;3.80;99.90;;;2.29;100.00;100014.28;6077747;23;20088;-80
2021/12/30 05:32:40;;;;;;;432.95;28.10;;;3.80;99.90;;;2.28;100.00;99989.22;6023190;23;20069;-80
2021/12/30 05:35:18;;;;;;;445.75;28.98;;;3.80;99.90;;;2.27;100.00;99988.38;5991796;23;20494;-79
2021/12/30 05:37:45;;;;;;;552.65;29.40;;;3.80;99.90;;;2.26;100.00;99978.88;6052484;23;20006;-81
2021/12/30 05:40:17;;;;;;;585.63;33.30;;;3.80;99.90;;;2.31;100.00;100016.00;6070788;23;20017;-80
2021/12/30 05:42:45;;;;;;;612.20;30.58;;;3.80;99.90;;;2.32;100.00;100017.69;6042513;23;20003;-80
2021/12/30 05:45:14;;;;;;;624.13;31.02;;;3.90;99.90;;;2.34;100.00;100015.06;6014055;23;20017;-80
2021/12/30 05:47:49;;;;;;;651.60;37.92;;;3.90;99.90;;;2.34;100.00;100012.47;6076788;23;20005;-80
2021/12/30 05:50:25;;;;;;;704.50;32.78;;;3.90;99.90;;;2.38;100.00;100003.69;6032724;23;20002;-80
2021/12/30 05:52:51;;;;;;;694.45;30.90;;;3.90;99.90;;;2.40;100.00;100002.78;6008312;23;20061;-80
2021/12/30 05:55:20;;;;;;;656.00;29.17;;;4.00;99.90;;;2.43;100.00;100010.47;6012394;23;20184;-79
2021/12/30 05:57:46;;;;;;;665.08;29.85;;;4.00;99.90;;;2.44;100.00;100009.59;6065340;23;20006;-79
2021/12/30 06:00:24;;;;;;;723.35;32.83;;;4.00;99.90;;;2.48;100.00;100020.75;6020392;23;20080;-80
2021/12/30 06:02:51;;;;;;;756.15;30.52;;;4.00;99.90;;;2.49;100.00;100027.69;6038570;23;20002;-81
2021/12/30 06:05:25;;;;;;;649.55;28.75;;;4.10;99.90;;;2.53;100.00;100033.63;6027656;23;20020;-81
2021/12/30 06:07:51;;;;;;;733.35;31.30;;;4.10;99.90;;;2.56;100.00;100029.22;6039001;23;20064;-81
2021/12/30 06:10:18;;;;;;;563.25;25.02;;;4.10;99.90;;;2.57;100.00;100046.53;6040653;23;20017;-81
2021/12/30 06:12:51;;;;;;;678.95;30.15;;;4.10;99.90;;;2.61;100.00;100066.38;6045045;23;20017;-80
2021/12/30 06:15:17;;;;;;;734.67;31.95;;;4.20;99.90;;;2.66;100.00;100037.66;6077659;23;20013;-81
2021/12/30 06:17:43;;;;;;;744.90;34.83;;;4.20;99.90;;;2.69;100.00;100028.91;6051598;23;20009;-80
2021/12/30 06:20:13;;;;;;;738.92;31.60;;;4.30;99.90;;;2.72;100.00;100065.22;5969439;23;20452;-81
2021/12/30 06:22:43;;;;;;;638.17;27.25;;;4.30;99.90;;;2.74;100.00;100066.03;6002675;23;20084;-81
2021/12/30 06:25:11;;;;;;;690.35;28.58;;;4.30;99.90;;;2.76;100.00;100067.72;6011677;23;20027;-80
2021/12/30 06:27:37;;;;;;;686.97;30.55;;;4.30;99.90;;;2.79;100.00;100069.41;6026765;23;20461;-81
2021/12/30 06:30:11;;;;;;;724.30;31.27;;;4.30;99.90;;;2.78;100.00;100050.31;6003286;23;20080;-81
2021/12/30 06:32:37;;;;;;;666.80;31.13;;;4.40;99.90;;;2.81;100.00;100071.06;5986075;23;20045;-80
2021/12/30 06:35:07;;;;;;;633.15;30.13;;;4.40;99.90;;;2.83;100.00;100087.47;6004716;23;20009;-81
2021/12/30 06:37:38;;;;;;;774.92;33.28;;;4.40;99.90;;;2.90;100.00;100080.38;6010259;23;20082;-81
2021/12/30 06:40:07;;;;;;;1999.90;999.90;;;4.50;99.90;;;2.92;100.00;100039.59;6016702;23;20015;-82
2021/12/30 06:42:33;;;;;;;798.97;37.40;;;4.50;99.90;;;2.96;100.00;100054.22;6046745;23;20015;-82
2021/12/30 06:44:59;;;;;;;772.72;32.40;;;4.50;99.90;;;2.98;100.00;100087.97;6097571;23;20005;-81
2021/12/30 06:47:32;;;;;;;760.00;34.22;;;4.60;99.90;;;3.03;100.00;100120.78;6048884;23;20480;-81
2021/12/30 06:50:01;;;;;;;990.67;47.47;;;4.60;99.90;;;3.03;100.00;100112.13;6055520;23;20005;-81
2021/12/30 06:52:37;;;;;;;813.97;40.42;;;4.60;99.90;;;3.10;100.00;100116.28;5992851;23;20083;-80
2021/12/30 06:55:03;;;;;;;879.67;36.10;;;4.60;99.90;;;3.13;100.00;100129.19;6029200;23;20552;-82
2021/12/30 06:57:29;;;;;;;802.28;37.38;;;4.70;99.90;;;3.14;100.00;100130.06;6052141;23;20316;-81
2021/12/30 06:59:55;;;;;;;871.22;35.38;;;4.70;99.90;;;3.18;100.00;100118.69;6040922;23;20084;-81
2021/12/30 07:02:29;;;;;;;909.45;36.90;;;4.70;99.90;;;3.19;100.00;100133.41;5996688;23;20088;-81
2021/12/30 07:04:54;;;;;;;844.42;35.53;;;4.80;99.90;;;3.22;100.00;100144.59;6060431;23;20013;-81
2021/12/30 07:07:20;;;;;;;897.10;38.30;;;4.80;99.90;;;3.25;100.00;100149.69;6064093;23;20651;-80
2021/12/30 07:09:47;;;;;;;876.47;38.88;;;4.80;99.90;;;3.28;100.00;100146.16;5999801;23;20431;-81
2021/12/30 07:12:17;;;;;;;1038.95;40.80;;;4.80;99.90;;;3.29;100.00;100130.50;6010592;23;20087;-80
2021/12/30 07:14:43;;;;;;;935.92;40.08;;;4.80;99.90;;;3.32;100.00;100139.13;5974959;23;20002;-80
2021/12/30 07:17:09;;;;;;;801.78;33.33;;;4.80;99.90;;;3.31;100.00;100140.03;6003082;23;20125;-79
2021/12/30 07:19:35;;;;;;;899.38;36.22;;;4.80;99.90;;;3.29;100.00;100155.69;6034312;23;20443;-82
2021/12/30 07:22:01;;;;;;;877.10;35.30;;;4.80;99.90;;;3.27;100.00;100137.50;6002656;23;20017;-81
2021/12/30 07:24:27;;;;;;;880.78;33.40;;;4.80;99.90;;;3.27;100.00;100152.28;6005682;23;20044;-81
2021/12/30 07:26:57;;;;;;;835.15;36.92;;;4.90;99.90;;;3.25;100.00;100122.84;6030023;23;20145;-81
2021/12/30 07:29:22;;;;;;;879.15;41.55;;;4.80;99.90;;;3.27;100.00;100139.25;6016994;23;20392;-81
2021/12/30 07:31:49;;;;;;;855.88;34.83;;;4.80;99.90;;;3.27;100.00;100134.91;6052378;23;20024;-81
2021/12/30 07:34:16;;;;;;;918.75;39.88;;;4.80;99.90;;;3.31;100.00;100116.63;6092375;23;20104;-81
2021/12/30 07:36:42;;;;;;;809.55;41.60;;;4.90;99.90;;;3.34;100.00;100090.50;5977016;23;20056;-80
2021/12/30 07:39:13;;;;;;;745.05;40.95;;;4.90;99.90;;;3.38;100.00;100120.75;6023478;23;20348;-80
2021/12/30 07:41:39;;;;;;;702.85;41.97;;;4.90;99.90;;;3.43;100.00;100134.50;6004066;23;20102;-81
2021/12/30 07:44:06;;;;;;;533.90;38.00;;;5.00;99.90;;;3.50;100.00;100130.84;6039259;23;20089;-81
2021/12/30 07:46:32;;;;;;;420.00;36.10;;;5.00;99.90;;;3.54;100.00;100149.81;5982739;23;20012;-81
2021/12/30 07:48:58;;;;;;;403.35;35.67;;;5.10;99.90;;;3.59;100.00;100154.03;6055721;23;20084;-81
2021/12/30 07:51:30;;;;;;;394.95;35.58;;;5.10;99.90;;;3.63;100.00;100166.06;5981227;23;20044;-80
2021/12/30 07:53:56;;;;;;;364.00;34.58;;;5.20;99.90;;;3.67;100.00;100185.94;6069438;23;20534;-81
2021/12/30 07:56:22;;;;;;;347.42;35.05;;;5.20;99.90;;;3.72;100.00;100209.22;6015868;23;20087;-81
2021/12/30 07:58:47;;;;;;;349.25;33.80;;;5.30;99.90;;;3.76;100.00;100212.59;5982965;23;20744;-81
2021/12/30 08:01:13;;;;;;;339.65;34.00;;;5.30;99.90;;;3.82;100.00;100197.69;6047049;23;20372;-80
2021/12/30 08:03:45;;;;;;;352.08;35.90;;;5.40;99.90;;;3.84;100.00;100205.44;6062121;23;20053;-80
2021/12/30 08:06:11;;;;;;;400.40;36.15;;;5.40;99.90;;;3.89;100.00;100172.31;5999819;23;20003;-82
2021/12/30 08:08:39;;;;;;;332.33;33.72;;;5.40;99.90;;;3.93;100.00;100230.38;6024346;23;20085;-80
2021/12/30 08:11:05;;;;;;;313.42;32.58;;;5.40;99.90;;;3.92;100.00;100171.38;6102641;23;20049;-80
2021/12/30 08:13:32;;;;;;;356.42;33.45;;;5.50;99.90;;;3.97;100.00;100213.75;6019529;23;20068;-79
2021/12/30 08:16:06;;;;;;;326.65;31.77;;;5.50;99.90;;;3.97;100.00;100161.66;5984911;23;20017;-80
2021/12/30 08:18:32;;;;;;;272.05;31.00;;;5.50;99.90;;;4.00;100.00;100140.75;6014329;23;20020;-79
2021/12/30 08:20:59;;;;;;;249.70;29.67;;;5.50;99.90;;;4.02;100.00;100157.19;6001156;23;20402;-79
2021/12/30 08:23:32;;;;;;;258.27;31.65;;;5.50;99.90;;;4.03;100.00;100164.94;6059957;23;20013;-79
2021/12/30 08:25:58;;;;;;;249.23;33.55;;;5.60;99.90;;;4.08;100.00;100146.56;6007011;23;20001;-80
2021/12/30 08:28:25;;;;;;;235.55;30.20;;;5.60;99.90;;;4.11;100.00;100130.88;6043848;23;20068;-80
2021/12/30 08:30:59;;;;;;;260.63;31.45;;;5.60;99.90;;;4.15;100.00;100202.84;6050954;23;20017;-79
2021/12/30 08:33:25;;;;;;;289.02;32.47;;;5.70;99.90;;;4.19;100.00;100182.75;6007003;23;20036;-79
2021/12/30 08:35:51;;;;;;;289.40;33.10;;;5.70;99.90;;;4.24;100.00;100205.19;6024651;23;20448;-80
2021/12/30 08:38:17;;;;;;;302.90;34.90;;;5.80;99.90;;;4.30;100.00;100233.69;5973022;23;20065;-79
2021/12/30 08:40:50;;;;;;;357.23;36.15;;;5.80;99.90;;;4.35;100.00;100238.75;5999589;23;20018;-79
2021/12/30 08:43:17;;;;;;;365.90;39.65;;;5.90;99.90;;;4.41;100.00;100253.38;5996834;23;20478;-79
2021/12/30 08:45:45;;;;;;;371.90;37.95;;;5.90;99.90;;;4.46;100.00;100247.09;5998563;23;20479;-80
2021/12/30 08:48:20;;;;;;;391.25;39.05;;;6.00;99.90;;;4.53;100.00;100253.00;6034499;23;20027;-79
2021/12/30 08:50:48;;;;;;;414.60;40.30;;;6.10;99.90;;;4.61;100.00;100229.31;6026482;23;20504;-79
2021/12/30 08:53:23;;;;;;;450.20;40.10;;;6.10;99.90;;;4.66;100.00;100245.66;6008708;23;20474;-81
2021/12/30 08:55:49;;;;;;;536.85;44.47;;;6.10;99.90;;;4.70;100.00;100274.22;6006735;23;20001;-80
2021/12/30 08:58:14;;;;;;;487.25;43.28;;;6.20;99.90;;;4.72;100.00;100306.31;6005096;23;20344;-79
2021/12/30 09:00:42;;;;;;;506.92;43.30;;;6.20;99.90;;;4.77;100.00;100302.72;6008300;23;20608;-79
2021/12/30 09:03:13;;;;;;;534.38;44.13;;;6.30;99.90;;;4.80;100.00;100307.88;6038528;23;20024;-80
2021/12/30 09:05:40;;;;;;;523.88;44.85;;;6.30;99.90;;;4.82;100.00;100317.34;6082456;23;20025;-80
2021/12/30 09:08:06;;;;;;;512.60;43.33;;;6.30;99.90;;;4.80;100.00;100310.47;6061234;23;20005;-81
2021/12/30 09:10:35;;;;;;;466.98;41.97;;;6.30;99.90;;;4.84;100.00;100343.41;6017924;23;20088;-80
2021/12/30 09:13:23;;;;;;;435.35;41.42;;;6.40;99.90;;;4.85;100.00;100316.41;6017635;23;20037;-81
2021/12/30 09:15:55;;;;;;;479.85;44.20;;;6.40;99.90;;;4.87;100.00;100354.59;6038630;23;20009;-78
2021/12/30 09:18:27;;;;;;;445.33;43.80;;;6.40;99.90;;;4.93;100.00;100377.06;6018279;23;20503;-80
2021/12/30 09:20:56;;;;;;;429.05;42.97;;;6.50;99.90;;;5.01;100.00;100380.31;6008811;23;20009;-80
2021/12/30 09:23:22;;;;;;;386.38;40.08;;;6.50;99.90;;;5.05;100.00;100375.81;6010072;23;20359;-80
2021/12/30 09:25:58;;;;;;;409.67;41.42;;;6.50;99.90;;;5.10;100.00;100369.59;6031109;23;20009;-81
2021/12/30 09:28:24;;;;;;;353.50;38.97;;;6.60;99.90;;;5.16;100.00;100370.28;5987325;23;20028;-80
2021/12/30 09:30:57;;;;;;;324.90;39.58;;;6.60;99.90;;;5.20;100.00;100382.34;6093601;23;20005;-79
2021/12/30 09:33:26;;;;;;;341.00;39.10;;;6.70;99.90;;;5.24;100.00;100376.13;6017910;23;20015;-80
2021/12/30 09:35:52;;;;;;;333.77;39.05;;;6.40;99.90;;;5.28;100.00;100357.72;6030341;23;20008;-79
2021/12/30 09:38:28;;;;;;;301.55;37.50;;;6.80;99.90;;;5.33;100.00;100319.28;5976177;23;20379;-80
2021/12/30 09:40:55;;;;;;;331.83;37.30;;;6.80;99.90;;;5.39;100.00;100401.78;6002723;23;20463;-80
2021/12/30 09:43:31;;;;;;;313.10;38.97;;;6.90;99.90;;;5.43;100.00;100413.84;6150881;23;20087;-81
2021/12/30 09:45:57;;;;;;;322.20;40.33;;;6.90;99.90;;;5.52;100.00;100428.38;6032215;23;20006;-80
2021/12/30 09:48:23;;;;;;;266.08;37.20;;;6.90;99.90;;;5.58;100.00;100454.31;6005265;23;20042;-80
2021/12/30 09:50:57;;;;;;;262.70;36.17;;;7.00;99.90;;;5.63;100.00;100430.66;6030729;23;20006;-80
2021/12/30 09:53:29;;;;;;;247.82;34.28;;;7.00;99.90;;;5.65;100.00;100407.97;5985229;23;20082;-80
2021/12/30 09:56:22;;;;;;;256.55;35.20;;;7.10;99.90;;;5.66;100.00;100420.09;6035211;23;20017;-80
2021/12/30 09:58:48;;;;;;;240.45;35.00;;;7.10;99.90;;;5.66;100.00;100387.03;6009528;23;19997;-80
2021/12/30 10:01:30;;;;;;;237.40;33.88;;;7.10;99.90;;;5.67;100.00;100450.56;6030056;23;20089;-81
2021/12/30 10:04:01;;;;;;;239.88;33.53;;;7.20;99.90;;;5.71;100.00;100385.09;6036144;23;20001;-80
2021/12/30 10:06:34;;;;;;;243.52;32.10;;;7.20;99.90;;;5.73;100.00;100439.94;6038421;23;20065;-80
2021/12/30 10:09:11;;;;;;;258.13;34.28;;;7.20;99.90;;;5.83;100.00;100440.47;6091041;23;20010;-80
2021/12/30 10:11:53;;;;;;;225.07;34.55;;;7.30;99.90;;;5.85;100.00;100342.88;6084459;23;20036;-80